createdAt,value
2019-01-03T00:01:13.796Z,-0.80
2019-01-03T00:04:21.087Z,-0.90
2019-01-03T00:07:28.289Z,-1.00
2019-01-03T00:10:27.638Z,-1.10
2019-01-03T00:13:26.886Z,-1.20
2019-01-03T00:16:15.001Z,-1.20
2019-01-03T00:25:28.879Z,-1.30
2019-01-03T00:28:36.498Z,-1.50
2019-01-03T00:31:43.841Z,-1.60
2019-01-03T00:34:51.340Z,-1.60
2019-01-03T00:37:58.625Z,-1.60
2019-01-03T00:41:05.847Z,-1.50
2019-01-03T00:47:14.411Z,-1.50
2019-01-03T00:50:21.715Z,-1.60
2019-01-03T00:53:29.149Z,-1.60
2019-01-03T00:56:36.436Z,-1.60
2019-01-03T00:59:43.603Z,-1.70
2019-01-03T01:02:50.822Z,-1.70
2019-01-03T01:05:58.045Z,-1.70
2019-01-03T01:09:05.289Z,-1.70
2019-01-03T01:12:05.368Z,-1.70
2019-01-03T01:18:07.486Z,-1.80
2019-01-03T01:20:55.641Z,-1.90
2019-01-03T01:24:02.900Z,-1.90
2019-01-03T01:27:10.402Z,-1.90
2019-01-03T01:30:17.736Z,-1.90
2019-01-03T01:33:24.925Z,-1.90
2019-01-03T01:36:26.759Z,-1.90
2019-01-03T01:39:33.984Z,-1.90
2019-01-03T01:42:41.220Z,-1.90
2019-01-03T01:45:48.451Z,-1.90
2019-01-03T01:48:55.717Z,-1.80
2019-01-03T01:52:02.951Z,-1.80
2019-01-03T01:55:10.381Z,-1.70
2019-01-03T01:58:17.623Z,-1.60
2019-01-03T02:01:24.851Z,-1.60
2019-01-03T02:04:32.102Z,-1.50
2019-01-03T02:07:31.322Z,-1.40
2019-01-03T02:10:38.545Z,-1.40
2019-01-03T02:13:41.719Z,-1.30
2019-01-03T02:16:41.310Z,-1.20
2019-01-03T02:19:44.733Z,-1.20
2019-01-03T02:22:59.199Z,-1.20
2019-01-03T02:25:44.075Z,-1.10
2019-01-03T02:31:23.206Z,-1.00
2019-01-03T02:34:11.384Z,-1.00
2019-01-03T02:37:54.689Z,-0.90
2019-01-03T02:40:37.020Z,-0.80
2019-01-03T02:43:44.264Z,-0.70
2019-01-03T02:46:51.685Z,-0.60
2019-01-03T02:49:59.128Z,-0.60
2019-01-03T02:53:06.343Z,-0.50
2019-01-03T02:56:02.706Z,-0.30
2019-01-03T02:59:09.937Z,-0.20
2019-01-03T03:02:17.165Z,-0.20
2019-01-03T03:05:20.699Z,-0.20
2019-01-03T03:08:27.866Z,-0.10
2019-01-03T03:11:35.192Z,-0.10
2019-01-03T03:14:31.968Z,0.00
2019-01-03T03:17:34.553Z,0.10
2019-01-03T03:20:34.077Z,0.20
2019-01-03T03:23:33.828Z,0.30
2019-01-03T03:26:33.551Z,0.40
2019-01-03T03:29:33.544Z,0.40
2019-01-03T03:32:33.171Z,0.50
2019-01-03T03:35:26.704Z,0.50
2019-01-03T03:38:29.314Z,0.60
2019-01-03T03:44:42.846Z,0.80
2019-01-03T03:47:49.965Z,0.90
2019-01-03T03:50:57.206Z,0.90
2019-01-03T03:54:04.625Z,0.90
2019-01-03T03:57:11.872Z,1.00
2019-01-03T04:00:19.112Z,1.10
2019-01-03T04:03:26.264Z,1.20
2019-01-03T04:06:33.508Z,1.20
2019-01-03T04:09:40.697Z,1.20
2019-01-03T04:12:40.593Z,1.20
2019-01-03T04:15:40.057Z,1.20
2019-01-03T04:18:30.876Z,1.30
2019-01-03T04:21:30.644Z,1.20
2019-01-03T04:24:30.557Z,1.30
2019-01-03T04:27:28.807Z,1.30
2019-01-03T04:30:36.085Z,1.30
2019-01-03T04:33:43.317Z,1.30
2019-01-03T04:36:41.841Z,1.30
2019-01-03T04:39:49.096Z,1.30
2019-01-03T04:42:56.288Z,1.30
2019-01-03T04:46:03.505Z,1.40
2019-01-03T04:49:10.814Z,1.40
2019-01-03T04:52:18.119Z,1.40
2019-01-03T04:55:25.412Z,1.30
2019-01-03T04:58:32.754Z,1.30
2019-01-03T05:01:59.250Z,1.30
2019-01-03T05:05:06.481Z,1.30
2019-01-03T05:08:08.636Z,1.30
2019-01-03T05:11:16.047Z,1.30
2019-01-03T05:14:23.312Z,1.30
2019-01-03T05:17:30.528Z,1.30
2019-01-03T05:20:37.751Z,1.30
2019-01-03T05:23:44.985Z,1.30
2019-01-03T05:26:52.189Z,1.40
2019-01-03T05:30:00.177Z,1.40
2019-01-03T05:33:07.407Z,1.40
2019-01-03T05:36:14.644Z,1.40
2019-01-03T05:39:21.841Z,1.40
2019-01-03T05:42:28.990Z,1.40
2019-01-03T05:45:36.189Z,1.30
2019-01-03T05:51:56.576Z,1.40
2019-01-03T05:55:03.825Z,1.40
2019-01-03T05:58:11.063Z,1.40
2019-01-03T06:01:18.267Z,1.40
2019-01-03T06:04:25.423Z,1.40
2019-01-03T06:07:13.511Z,1.40
2019-01-03T06:10:13.254Z,1.50
2019-01-03T06:13:12.750Z,1.50
2019-01-03T06:16:12.156Z,1.50
2019-01-03T06:19:11.730Z,1.50
2019-01-03T06:22:11.377Z,1.50
2019-01-03T06:25:05.934Z,1.50
2019-01-03T06:31:23.633Z,1.60
2019-01-03T06:34:23.140Z,1.50
2019-01-03T06:37:23.470Z,1.60
2019-01-03T06:43:25.350Z,1.60
2019-01-03T06:46:24.825Z,1.60
2019-01-03T06:49:25.292Z,1.60
2019-01-03T06:52:25.703Z,1.70
2019-01-03T06:55:26.139Z,1.70
2019-01-03T06:58:30.283Z,1.80
2019-01-03T07:01:37.529Z,1.80
2019-01-03T07:04:45.035Z,1.80
2019-01-03T07:07:52.214Z,1.80
2019-01-03T07:10:59.419Z,1.80
2019-01-03T07:13:58.915Z,1.80
2019-01-03T07:17:01.517Z,1.80
2019-01-03T07:20:02.968Z,1.90
2019-01-03T07:23:05.890Z,1.90
2019-01-03T07:26:05.455Z,1.90
2019-01-03T07:29:06.804Z,1.90
2019-01-03T07:32:13.019Z,1.90
2019-01-03T07:35:13.458Z,2.00
2019-01-03T07:38:13.471Z,2.00
2019-01-03T07:41:13.761Z,2.00
2019-01-03T07:44:14.069Z,2.00
2019-01-03T07:47:12.324Z,2.10
2019-01-03T07:50:19.645Z,2.10
2019-01-03T07:53:26.895Z,2.10
2019-01-03T07:56:34.111Z,2.10
2019-01-03T07:59:41.352Z,2.10
2019-01-03T08:02:48.594Z,2.10
2019-01-03T08:05:56.008Z,2.10
2019-01-03T08:09:03.213Z,2.20
2019-01-03T08:12:10.569Z,2.20
2019-01-03T08:15:17.718Z,2.20
2019-01-03T08:18:17.649Z,2.20
2019-01-03T08:21:17.239Z,2.30
2019-01-03T08:24:23.334Z,2.30
2019-01-03T08:27:23.412Z,2.30
2019-01-03T08:30:23.833Z,2.40
2019-01-03T08:33:20.809Z,2.40
2019-01-03T08:36:26.335Z,2.40
2019-01-03T08:39:30.252Z,2.50
2019-01-03T08:45:32.138Z,2.50
2019-01-03T08:48:32.423Z,2.60
2019-01-03T08:51:33.241Z,2.60
2019-01-03T08:57:41.117Z,2.70
2019-01-03T09:00:48.321Z,2.70
2019-01-03T09:03:55.561Z,2.70
2019-01-03T09:07:02.806Z,2.80
2019-01-03T09:10:09.957Z,2.80
2019-01-03T09:13:17.409Z,2.80
2019-01-03T09:16:24.656Z,2.90
2019-01-03T09:19:24.798Z,2.90
2019-01-03T09:22:24.769Z,3.00
2019-01-03T09:25:24.291Z,3.00
2019-01-03T09:28:23.783Z,3.00
2019-01-03T09:31:11.767Z,3.10
2019-01-03T09:34:19.027Z,3.10
2019-01-03T09:37:27.013Z,3.10
2019-01-03T09:40:34.595Z,3.20
2019-01-03T09:43:22.688Z,3.30
2019-01-03T09:46:11.167Z,3.30
2019-01-03T09:48:59.339Z,3.40
2019-01-03T09:51:28.405Z,3.40
2019-01-03T09:53:57.471Z,3.50
2019-01-03T09:56:26.528Z,3.50
2019-01-03T09:58:55.568Z,3.50
2019-01-03T10:04:37.519Z,3.50
2019-01-03T10:07:25.885Z,3.50
2019-01-03T10:10:14.236Z,3.50
2019-01-03T10:12:54.865Z,3.60
2019-01-03T10:15:35.445Z,3.60
2019-01-03T10:18:16.200Z,3.70
2019-01-03T10:20:55.509Z,3.80
2019-01-03T10:23:43.671Z,3.90
2019-01-03T10:26:31.856Z,4.10
2019-01-03T10:29:20.236Z,4.00
2019-01-03T10:32:08.502Z,4.10
2019-01-03T10:38:03.979Z,4.10
2019-01-03T10:40:52.245Z,4.10
2019-01-03T10:43:40.421Z,4.20
2019-01-03T10:46:28.615Z,4.30
2019-01-03T10:49:16.905Z,4.30
2019-01-03T10:51:58.281Z,4.20
2019-01-03T10:54:39.117Z,4.20
2019-01-03T10:57:19.884Z,4.20
2019-01-03T11:03:13.477Z,4.20
2019-01-03T11:05:54.425Z,4.10
2019-01-03T11:08:35.230Z,4.10
2019-01-03T11:11:15.976Z,4.10
2019-01-03T11:13:56.471Z,4.10
2019-01-03T11:16:37.061Z,4.10
2019-01-03T11:19:17.918Z,4.10
2019-01-03T11:21:58.696Z,4.20
2019-01-03T11:24:39.551Z,4.30
2019-01-03T11:27:08.835Z,4.30
2019-01-03T11:30:16.265Z,4.30
2019-01-03T11:33:04.482Z,4.30
2019-01-03T11:35:53.316Z,4.30
2019-01-03T11:41:48.900Z,4.40
2019-01-03T11:44:37.547Z,4.40
2019-01-03T11:47:06.718Z,4.30
2019-01-03T11:49:54.917Z,4.40
2019-01-03T11:52:35.405Z,4.40
2019-01-03T11:55:16.239Z,4.30
2019-01-03T12:00:39.244Z,4.40
2019-01-03T12:06:21.175Z,4.50
2019-01-03T12:09:09.356Z,4.40
2019-01-03T12:11:57.433Z,4.50
2019-01-03T12:14:45.673Z,4.40
2019-01-03T12:17:33.925Z,4.30
2019-01-03T12:20:22.115Z,4.40
2019-01-03T12:26:04.660Z,4.40
2019-01-03T12:28:53.021Z,4.60
2019-01-03T12:31:22.123Z,4.50
2019-01-03T12:34:10.307Z,4.50
2019-01-03T12:36:58.490Z,4.60
2019-01-03T12:39:46.762Z,4.50
2019-01-03T12:42:34.961Z,4.50
2019-01-03T12:47:38.753Z,4.50
2019-01-03T12:50:26.931Z,4.50
2019-01-03T12:53:15.101Z,4.40
2019-01-03T12:56:03.309Z,4.40
2019-01-03T12:58:32.394Z,4.40
2019-01-03T13:01:20.651Z,4.50
2019-01-03T13:03:49.761Z,4.50
2019-01-03T13:06:21.152Z,4.80
2019-01-03T13:12:11.406Z,4.60
2019-01-03T13:14:52.800Z,4.60
2019-01-03T13:17:40.905Z,4.60
2019-01-03T13:20:29.108Z,4.60
2019-01-03T13:22:58.137Z,4.50
2019-01-03T13:25:46.269Z,4.50
2019-01-03T13:28:34.365Z,4.50
2019-01-03T13:31:22.547Z,4.50
2019-01-03T13:34:10.799Z,4.50
2019-01-03T13:39:52.442Z,4.50
2019-01-03T13:42:40.653Z,4.40
2019-01-03T13:45:28.837Z,4.40
2019-01-03T13:48:17.491Z,4.30
2019-01-03T13:51:05.756Z,4.40
2019-01-03T13:53:54.101Z,4.50
2019-01-03T13:56:45.539Z,4.50
2019-01-03T13:59:33.734Z,4.60
2019-01-03T14:02:21.859Z,4.60
2019-01-03T14:05:10.024Z,4.60
2019-01-03T14:07:58.099Z,4.60
2019-01-03T14:10:46.338Z,4.60
2019-01-03T14:13:15.519Z,4.50
2019-01-03T14:15:56.319Z,4.50
2019-01-03T14:18:37.161Z,4.50
2019-01-03T14:21:17.884Z,4.40
2019-01-03T14:23:59.276Z,4.40
2019-01-03T14:26:40.536Z,4.40
2019-01-03T14:29:21.337Z,4.40
2019-01-03T14:32:02.414Z,4.40
2019-01-03T14:34:43.434Z,4.40
2019-01-03T14:37:12.651Z,4.50
2019-01-03T14:40:00.884Z,4.50
2019-01-03T14:42:49.040Z,4.60
2019-01-03T14:45:37.229Z,4.70
2019-01-03T14:48:06.334Z,4.70
2019-01-03T14:50:54.664Z,4.80
2019-01-03T14:53:42.881Z,4.80
2019-01-03T14:56:30.976Z,4.70
2019-01-03T14:59:19.361Z,4.50
2019-01-03T15:02:07.424Z,4.50
2019-01-03T15:04:55.678Z,4.40
2019-01-03T15:07:43.846Z,4.30
2019-01-03T15:13:26.322Z,4.10
2019-01-03T15:16:07.178Z,4.00
2019-01-03T15:18:48.243Z,3.90
2019-01-03T15:21:27.604Z,3.80
2019-01-03T15:23:56.781Z,3.70
2019-01-03T15:29:38.634Z,3.60
2019-01-03T15:32:26.833Z,3.50
2019-01-03T15:35:15.009Z,3.50
2019-01-03T15:38:03.222Z,3.50
2019-01-03T15:40:51.391Z,3.40
2019-01-03T15:43:39.642Z,3.40
2019-01-03T15:46:08.720Z,3.40
2019-01-03T15:48:37.875Z,3.40
2019-01-03T15:51:26.299Z,3.40
2019-01-03T15:54:14.428Z,3.40
2019-01-03T15:57:02.961Z,3.30
2019-01-03T15:59:51.329Z,3.30
2019-01-03T16:02:20.404Z,3.30
2019-01-03T16:04:49.493Z,3.30
2019-01-03T16:07:37.697Z,3.30
2019-01-03T16:10:25.904Z,3.30
2019-01-03T16:13:14.269Z,3.30
2019-01-03T16:16:02.469Z,3.20
2019-01-03T16:18:31.536Z,3.20
2019-01-03T16:21:19.693Z,3.20
2019-01-03T16:23:48.808Z,3.10
2019-01-03T16:26:17.883Z,3.10
2019-01-03T16:28:47.053Z,3.10
2019-01-03T16:31:35.252Z,3.00
2019-01-03T16:34:23.413Z,3.00
2019-01-03T16:37:11.520Z,2.90
2019-01-03T16:43:07.040Z,2.90
2019-01-03T16:45:36.127Z,2.90
2019-01-03T16:48:24.484Z,2.80
2019-01-03T16:51:12.720Z,2.80
2019-01-03T16:54:01.178Z,2.80
2019-01-03T16:56:49.411Z,2.70
2019-01-03T16:59:37.648Z,2.70
2019-01-03T17:02:26.087Z,2.60
2019-01-03T17:04:55.219Z,2.60
2019-01-03T17:07:43.429Z,2.60
2019-01-03T17:10:31.601Z,2.50
2019-01-03T17:13:00.637Z,2.50
2019-01-03T17:15:41.933Z,2.50
2019-01-03T17:18:23.453Z,2.40
2019-01-03T17:20:52.537Z,2.40
2019-01-03T17:23:40.704Z,2.40
2019-01-03T17:26:29.055Z,2.40
2019-01-03T17:29:17.208Z,2.30
2019-01-03T17:32:05.408Z,2.30
2019-01-03T17:34:34.506Z,2.20
2019-01-03T17:37:22.704Z,2.20
2019-01-03T17:39:51.607Z,2.10
2019-01-03T17:42:40.349Z,2.00
2019-01-03T17:45:09.906Z,2.00
2019-01-03T17:47:38.996Z,2.00
2019-01-03T17:50:08.991Z,1.90
2019-01-03T17:52:38.083Z,1.90
2019-01-03T17:55:08.019Z,1.80
2019-01-03T17:57:37.156Z,1.80
2019-01-03T18:00:09.465Z,1.70
2019-01-03T18:05:46.420Z,1.60
2019-01-03T18:08:34.601Z,1.50
2019-01-03T18:11:22.785Z,1.40
2019-01-03T18:14:10.958Z,1.30
2019-01-03T18:16:51.905Z,1.20
2019-01-03T18:19:32.844Z,1.20
2019-01-03T18:22:13.815Z,1.20
2019-01-03T18:24:54.839Z,1.20
2019-01-03T18:27:36.196Z,1.20
2019-01-03T18:30:05.813Z,1.10
2019-01-03T18:32:54.264Z,1.10
2019-01-03T18:35:50.125Z,1.10
2019-01-03T18:38:38.575Z,1.00
2019-01-03T18:41:26.819Z,1.00
2019-01-03T18:44:15.005Z,0.90
2019-01-03T18:47:03.213Z,0.90
2019-01-03T18:49:51.393Z,0.90
2019-01-03T18:52:39.590Z,0.90
2019-01-03T18:55:09.341Z,0.90
2019-01-03T18:57:57.525Z,0.90
2019-01-03T19:03:54.818Z,0.80
2019-01-03T19:06:43.041Z,0.80
2019-01-03T19:09:31.339Z,0.80
2019-01-03T19:12:00.439Z,0.80
2019-01-03T19:14:48.683Z,0.70
2019-01-03T19:17:36.868Z,0.70
2019-01-03T19:20:24.998Z,0.70
2019-01-03T19:23:13.159Z,0.70
2019-01-03T19:26:01.507Z,0.60
2019-01-03T19:28:49.676Z,0.60
2019-01-03T19:31:18.765Z,0.50
2019-01-03T19:33:48.025Z,0.40
2019-01-03T19:36:17.204Z,0.40
2019-01-03T19:39:05.995Z,0.30
2019-01-03T19:41:35.189Z,0.20
2019-01-03T19:44:04.245Z,0.10
2019-01-03T19:46:33.455Z,0.00
2019-01-03T19:49:21.834Z,0.00
2019-01-03T19:52:10.072Z,-0.10
2019-01-03T19:54:58.497Z,-0.10
2019-01-03T19:57:46.888Z,-0.20
2019-01-03T20:00:35.090Z,-0.20
2019-01-03T20:03:23.255Z,-0.20
2019-01-03T20:05:52.626Z,-0.30
2019-01-03T20:08:40.796Z,-0.30
2019-01-03T20:11:28.990Z,-0.40
2019-01-03T20:14:17.361Z,-0.40
2019-01-03T20:17:05.549Z,-0.40
2019-01-03T20:19:46.835Z,-0.40
2019-01-03T20:22:27.432Z,-0.50
2019-01-03T20:25:08.791Z,-0.50
2019-01-03T20:27:49.920Z,-0.50
2019-01-03T20:30:30.537Z,-0.60
2019-01-03T20:32:59.672Z,-0.60
2019-01-03T20:35:47.984Z,-0.70
2019-01-03T20:38:36.396Z,-0.80
2019-01-03T20:41:24.501Z,-0.80
2019-01-03T20:43:53.581Z,-0.80
2019-01-03T20:46:22.803Z,-0.80
2019-01-03T20:48:51.977Z,-0.80
2019-01-03T20:51:23.640Z,-0.80
2019-01-03T20:54:11.906Z,-0.90
2019-01-03T20:57:00.134Z,-0.90
2019-01-03T20:59:48.344Z,-0.90
2019-01-03T21:05:44.005Z,-1.00
2019-01-03T21:13:48.731Z,-0.90
2019-01-03T21:16:36.988Z,-1.10
2019-01-03T21:19:18.359Z,-1.10
2019-01-03T21:21:50.424Z,-1.10
2019-01-03T21:24:38.737Z,-1.10
2019-01-03T21:27:07.968Z,-1.10
2019-01-03T21:29:56.228Z,-1.10
2019-01-03T21:32:25.315Z,-1.10
2019-01-03T21:35:13.615Z,-1.10
2019-01-03T21:40:56.539Z,-1.20
2019-01-03T21:43:44.758Z,-1.20
2019-01-03T21:46:13.792Z,-1.30
2019-01-03T21:49:02.102Z,-1.30
2019-01-03T21:51:50.297Z,-1.30
2019-01-03T21:54:40.054Z,-1.40
2019-01-03T21:57:28.582Z,-1.40
2019-01-03T22:00:16.997Z,-1.50
2019-01-03T22:03:05.263Z,-1.50
2019-01-03T22:05:53.467Z,-1.50
2019-01-03T22:08:41.676Z,-1.50
2019-01-03T22:11:30.289Z,-1.50
2019-01-03T22:14:18.666Z,-1.50
2019-01-03T22:16:59.763Z,-1.50
2019-01-03T22:19:40.728Z,-1.50
2019-01-03T22:22:21.725Z,-1.50
2019-01-03T22:25:02.423Z,-1.50
2019-01-03T22:27:31.516Z,-1.50
2019-01-03T22:30:19.691Z,-1.50
2019-01-03T22:33:07.853Z,-1.60
2019-01-03T22:35:56.053Z,-1.60
2019-01-03T22:38:44.253Z,-1.60
2019-01-03T22:41:32.651Z,-1.60
2019-01-03T22:44:01.705Z,-1.60
2019-01-03T22:46:49.918Z,-1.60
2019-01-03T22:49:37.988Z,-1.70
2019-01-03T22:52:26.136Z,-1.70
2019-01-03T22:55:14.281Z,-1.70
2019-01-03T22:58:02.695Z,-1.70
2019-01-03T23:00:52.133Z,-1.70
2019-01-03T23:03:40.545Z,-1.70
2019-01-03T23:06:28.695Z,-1.70
2019-01-03T23:09:16.983Z,-1.70
2019-01-03T23:17:59.099Z,-1.70
2019-01-03T23:20:39.744Z,-1.70
2019-01-03T23:23:20.820Z,-1.60
2019-01-03T23:25:50.193Z,-1.60
2019-01-03T23:28:38.415Z,-1.60
2019-01-03T23:31:27.167Z,-1.60
2019-01-03T23:37:09.035Z,-1.60
2019-01-03T23:39:57.370Z,-1.60
2019-01-03T23:42:45.629Z,-1.50
2019-01-03T23:45:34.380Z,-1.50
2019-01-03T23:48:03.523Z,-1.60
2019-01-03T23:50:36.208Z,-1.60
2019-01-03T23:53:05.724Z,-1.60
2019-01-03T23:55:38.119Z,-1.60
2019-01-03T23:58:07.201Z,-1.60
